Terminal Aerodrome Forecast
Issued by NWS

Current Version | Previous Version | Text Only | Print | Product List | Glossary On
Versions: 1 2 3 4 5 6 7 8 9 10 11 12 13 14 15 16 17 18 19 20 21 22 23 24 25 26 27 28 29 30
000
FTUS43 KDMX 120628 AAA
TAFFOD
TAF AMD
KFOD 120628Z 1206/1306 VRB04KT 4SM BR VCSH BKN035 OVC130
     FM120900 VRB04KT 4SM TSRA BR OVC025CB
      TEMPO 1210/1213 2SM TSRA BR SCT008 BKN025CB
     FM121300 VRB04KT P6SM SCT045 OVC120=

USA.gov is the U.S. government's official web portal to all federal, state and local government web resources and services.